createdAt,value
2023-03-02T00:01:39.536Z,98491.41
2023-03-02T00:03:41.034Z,98482.75
2023-03-02T00:05:42.383Z,98494.59
2023-03-02T00:07:43.727Z,98491.94
2023-03-02T00:09:45.297Z,98491.03
2023-03-02T00:11:46.673Z,98491.88
2023-03-02T00:13:48.001Z,98489.19
2023-03-02T00:15:49.346Z,98492.63
2023-03-02T00:17:50.727Z,98489.19
2023-03-02T00:19:52.038Z,98490.88
2023-03-02T00:21:53.346Z,98483.25
2023-03-02T00:23:54.688Z,98482.44
2023-03-02T00:25:56.056Z,98487.63
2023-03-02T00:27:58.108Z,98481.75
2023-03-02T00:29:59.400Z,98487.03
2023-03-02T00:32:00.811Z,98482.06
2023-03-02T00:34:02.183Z,98490.66
2023-03-02T00:36:03.606Z,98478.81
2023-03-02T00:38:05.111Z,98484.84
2023-03-02T00:40:06.977Z,98484.88
2023-03-02T00:42:08.284Z,98473.03
2023-03-02T00:44:09.581Z,98476.59
2023-03-02T00:46:11.019Z,98464.66
2023-03-02T00:48:12.381Z,98463.06
2023-03-02T00:50:13.671Z,98459.72
2023-03-02T00:52:14.977Z,98462.28
2023-03-02T00:54:16.294Z,98456.31
2023-03-02T00:56:17.634Z,98463.09
2023-03-02T00:58:18.927Z,98457.06
2023-03-02T01:00:20.220Z,98459.63
2023-03-02T01:02:21.778Z,98450.31
2023-03-02T01:04:23.166Z,98454.63
2023-03-02T01:06:24.481Z,98449.59
2023-03-02T01:08:25.836Z,98448.03
2023-03-02T01:10:27.126Z,98441.28
2023-03-02T01:12:28.424Z,98443.88
2023-03-02T01:14:29.776Z,98437.97
2023-03-02T01:16:31.487Z,98429.47
2023-03-02T01:18:34.908Z,98433.81
2023-03-02T01:20:36.210Z,98435.50
2023-03-02T01:22:37.567Z,98430.44
2023-03-02T01:24:38.903Z,98429.59
2023-03-02T01:26:40.246Z,98428.72
2023-03-02T01:28:41.593Z,98426.16
2023-03-02T01:30:43.125Z,98427.00
2023-03-02T01:32:44.419Z,98415.09
2023-03-02T01:34:45.712Z,98416.75
2023-03-02T01:36:47.044Z,98412.50
2023-03-02T01:38:48.398Z,98411.25
2023-03-02T01:40:49.794Z,98408.75
2023-03-02T01:42:51.196Z,98412.09
2023-03-02T01:44:54.169Z,98411.16
2023-03-02T01:46:55.516Z,98399.91
2023-03-02T01:48:56.828Z,98404.06
2023-03-02T01:50:58.207Z,98403.97
2023-03-02T01:52:59.522Z,98409.06
2023-03-02T01:55:00.824Z,98411.50
2023-03-02T01:57:02.134Z,98402.97
2023-03-02T01:59:03.483Z,98408.91
2023-03-02T02:01:04.930Z,98401.22
2023-03-02T02:03:09.261Z,98400.31
2023-03-02T02:05:10.693Z,98402.06
2023-03-02T02:07:12.019Z,98401.22
2023-03-02T02:09:13.348Z,98397.09
2023-03-02T02:11:14.722Z,98396.34
2023-03-02T02:13:16.069Z,98394.69
2023-03-02T02:15:17.392Z,98390.44
2023-03-02T02:17:18.739Z,98386.28
2023-03-02T02:19:20.036Z,98386.38
2023-03-02T02:21:21.354Z,98377.91
2023-03-02T02:23:22.713Z,98377.00
2023-03-02T02:25:24.015Z,98374.50
2023-03-02T02:27:29.824Z,98372.06
2023-03-02T02:29:31.195Z,98370.41
2023-03-02T02:31:32.501Z,98366.94
2023-03-02T02:33:33.832Z,98372.91
2023-03-02T02:35:36.572Z,98364.44
2023-03-02T02:37:38.400Z,98361.06
2023-03-02T02:39:39.777Z,98361.13
2023-03-02T02:41:41.108Z,98367.94
2023-03-02T02:43:42.423Z,98368.84
2023-03-02T02:45:43.874Z,98373.00
2023-03-02T02:47:45.239Z,98373.91
2023-03-02T02:49:46.739Z,98369.66
2023-03-02T02:51:48.040Z,98372.31
2023-03-02T02:53:49.450Z,98367.94
2023-03-02T02:55:50.785Z,98373.06
2023-03-02T02:57:52.123Z,98371.31
2023-03-02T02:59:53.425Z,98364.44
2023-03-02T03:01:54.731Z,98367.00
2023-03-02T03:03:56.160Z,98370.34
2023-03-02T03:05:57.771Z,98366.88
2023-03-02T03:07:59.067Z,98364.22
2023-03-02T03:10:00.445Z,98364.06
2023-03-02T03:12:02.237Z,98370.78
2023-03-02T03:14:03.663Z,98378.38
2023-03-02T03:16:04.961Z,98377.47
2023-03-02T03:18:06.296Z,98362.97
2023-03-02T03:20:10.786Z,98364.59
2023-03-02T03:22:12.150Z,98363.66
2023-03-02T03:24:13.452Z,98371.38
2023-03-02T03:26:14.848Z,98372.28
2023-03-02T03:28:16.148Z,98366.38
2023-03-02T03:30:17.472Z,98363.91
2023-03-02T03:32:18.804Z,98364.81
2023-03-02T03:34:20.143Z,98370.88
2023-03-02T03:36:21.541Z,98369.22
2023-03-02T03:38:22.876Z,98371.75
2023-03-02T03:40:24.164Z,98363.38
2023-03-02T03:42:25.467Z,98366.88
2023-03-02T03:44:26.800Z,98371.19
2023-03-02T03:46:28.129Z,98367.06
2023-03-02T03:48:29.458Z,98362.97
2023-03-02T03:50:30.782Z,98366.50
2023-03-02T03:52:32.192Z,98364.84
2023-03-02T03:54:33.487Z,98365.69
2023-03-02T03:56:34.909Z,98362.38
2023-03-02T03:58:36.336Z,98360.72
2023-03-02T04:00:37.667Z,98359.03
2023-03-02T04:02:39.100Z,98358.13
2023-03-02T04:04:40.472Z,98359.72
2023-03-02T04:06:41.771Z,98355.47
2023-03-02T04:08:43.079Z,98359.78
2023-03-02T04:10:44.444Z,98362.34
2023-03-02T04:12:45.743Z,98364.84
2023-03-02T04:14:47.046Z,98362.22
2023-03-02T04:16:48.411Z,98361.38
2023-03-02T04:18:49.753Z,98358.78
2023-03-02T04:20:51.229Z,98356.06
2023-03-02T04:22:52.558Z,98355.22
2023-03-02T04:24:53.847Z,98353.50
2023-03-02T04:26:55.192Z,98352.53
2023-03-02T04:28:56.547Z,98349.84
2023-03-02T04:30:57.905Z,98350.59
2023-03-02T04:32:59.227Z,98347.03
2023-03-02T04:35:00.555Z,98353.78
2023-03-02T04:37:01.852Z,98356.25
2023-03-02T04:39:03.215Z,98360.38
2023-03-02T04:41:04.551Z,98359.50
2023-03-02T04:43:05.885Z,98352.63
2023-03-02T04:45:07.180Z,98352.63
2023-03-02T04:47:08.472Z,98346.69
2023-03-02T04:49:09.827Z,98346.72
2023-03-02T04:51:11.199Z,98347.63
2023-03-02T04:53:12.518Z,98340.03
2023-03-02T04:55:13.909Z,98346.09
2023-03-02T04:57:15.212Z,98344.44
2023-03-02T04:59:16.740Z,98343.72
2023-03-02T05:01:18.078Z,98350.53
2023-03-02T05:03:19.464Z,98338.72
2023-03-02T05:05:20.755Z,98350.75
2023-03-02T05:07:22.162Z,98340.66
2023-03-02T05:09:27.299Z,98343.34
2023-03-02T05:11:28.663Z,98342.59
2023-03-02T05:13:29.957Z,98340.97
2023-03-02T05:15:31.311Z,98341.91
2023-03-02T05:17:32.659Z,98337.78
2023-03-02T05:19:33.991Z,98342.03
2023-03-02T05:21:35.315Z,98331.88
2023-03-02T05:23:36.632Z,98333.59
2023-03-02T05:25:37.986Z,98331.91
2023-03-02T05:27:39.321Z,98333.63
2023-03-02T05:29:40.682Z,98333.63
2023-03-02T05:31:42.111Z,98327.56
2023-03-02T05:33:43.478Z,98327.56
2023-03-02T05:35:44.907Z,98333.53
2023-03-02T05:37:46.500Z,98328.38
2023-03-02T05:39:47.805Z,98330.03
2023-03-02T05:41:49.171Z,98324.00
2023-03-02T05:43:50.504Z,98322.25
2023-03-02T05:45:51.803Z,98326.47
2023-03-02T05:47:53.110Z,98326.25
2023-03-02T05:49:54.404Z,98333.66
2023-03-02T05:51:58.579Z,98329.28
2023-03-02T05:53:59.972Z,98331.72
2023-03-02T05:56:02.214Z,98330.75
2023-03-02T05:58:03.716Z,98326.38
2023-03-02T06:00:05.997Z,98326.31
2023-03-02T06:02:07.374Z,98341.66
2023-03-02T06:04:08.720Z,98337.34
2023-03-02T06:06:14.405Z,98339.78
2023-03-02T06:08:16.404Z,98334.53
2023-03-02T06:10:17.890Z,98337.97
2023-03-02T06:12:19.188Z,98342.31
2023-03-02T06:14:20.491Z,98340.69
2023-03-02T06:16:21.874Z,98339.88
2023-03-02T06:18:23.228Z,98345.00
2023-03-02T06:20:24.516Z,98334.13
2023-03-02T06:22:25.861Z,98341.91
2023-03-02T06:24:27.159Z,98340.31
2023-03-02T06:26:28.464Z,98338.66
2023-03-02T06:28:29.936Z,98335.25
2023-03-02T06:30:31.272Z,98337.84
2023-03-02T06:32:34.316Z,98341.31
2023-03-02T06:34:35.747Z,98342.19
2023-03-02T06:36:38.813Z,98346.50
2023-03-02T06:38:40.300Z,98348.25
2023-03-02T06:40:41.607Z,98348.25
2023-03-02T06:42:42.945Z,98342.38
2023-03-02T06:44:44.311Z,98343.25
2023-03-02T06:46:45.675Z,98355.16
2023-03-02T06:48:46.981Z,98350.06
2023-03-02T06:50:48.366Z,98351.81
2023-03-02T06:52:49.829Z,98347.59
2023-03-02T06:54:51.115Z,98347.66
2023-03-02T06:56:52.406Z,98341.69
2023-03-02T06:58:53.710Z,98337.47
2023-03-02T07:00:55.026Z,98340.03
2023-03-02T07:02:56.399Z,98349.34
2023-03-02T07:04:57.760Z,98339.06
2023-03-02T07:06:59.079Z,98344.25
2023-03-02T07:09:00.383Z,98339.19
2023-03-02T07:11:01.720Z,98339.97
2023-03-02T07:13:03.020Z,98340.72
2023-03-02T07:15:04.537Z,98340.56
2023-03-02T07:17:06.011Z,98337.84
2023-03-02T07:19:07.351Z,98348.94
2023-03-02T07:21:08.685Z,98344.41
2023-03-02T07:23:10.035Z,98344.41
2023-03-02T07:25:11.338Z,98346.84
2023-03-02T07:27:12.672Z,98348.56
2023-03-02T07:29:13.969Z,98352.81
2023-03-02T07:31:15.365Z,98346.91
2023-03-02T07:33:16.761Z,98341.00
2023-03-02T07:35:18.291Z,98349.50
2023-03-02T07:37:19.693Z,98353.53
2023-03-02T07:39:20.991Z,98339.59
2023-03-02T07:41:22.833Z,98335.91
2023-03-02T07:43:25.508Z,98344.09
2023-03-02T07:45:26.819Z,98342.88
2023-03-02T07:47:28.165Z,98343.13
2023-03-02T07:49:29.456Z,98206.03
2023-03-02T07:51:31.038Z,98344.34
2023-03-02T07:53:32.490Z,98347.84
2023-03-02T07:55:33.820Z,98347.09
2023-03-02T07:57:35.438Z,98344.59
2023-03-02T07:59:36.740Z,98348.91
2023-03-02T08:01:38.092Z,98346.41
2023-03-02T08:03:39.408Z,98342.19
2023-03-02T08:05:40.710Z,98343.97
2023-03-02T08:07:42.343Z,98341.44
2023-03-02T08:09:43.652Z,98345.69
2023-03-02T08:11:45.108Z,98349.16
2023-03-02T08:13:46.489Z,98350.00
2023-03-02T08:15:47.844Z,98344.09
2023-03-02T08:17:49.198Z,98354.31
2023-03-02T08:19:50.542Z,98357.69
2023-03-02T08:21:51.849Z,98347.44
2023-03-02T08:23:53.247Z,98366.06
2023-03-02T08:25:54.627Z,98358.31
2023-03-02T08:27:55.918Z,98359.84
2023-03-02T08:29:57.219Z,98351.06
2023-03-02T08:31:59.204Z,98358.38
2023-03-02T08:34:00.619Z,98354.63
2023-03-02T08:36:02.109Z,98349.25
2023-03-02T08:38:03.456Z,98358.44
2023-03-02T08:40:04.803Z,98356.53
2023-03-02T08:42:06.103Z,98342.78
2023-03-02T08:44:07.642Z,98341.75
2023-03-02T08:46:09.017Z,98349.44
2023-03-02T08:48:10.396Z,98341.75
2023-03-02T08:50:11.733Z,98343.41
2023-03-02T08:52:15.389Z,98340.91
2023-03-02T08:54:16.855Z,98331.63
2023-03-02T08:56:18.267Z,98329.16
2023-03-02T08:58:19.608Z,98325.78
2023-03-02T09:00:20.940Z,98330.16
2023-03-02T09:02:22.241Z,98331.91
2023-03-02T09:04:23.670Z,98334.53
2023-03-02T09:06:25.032Z,98333.69
2023-03-02T09:08:26.347Z,98336.31
2023-03-02T09:10:27.693Z,98337.16
2023-03-02T09:12:29.109Z,98336.41
2023-03-02T09:14:30.452Z,98327.88
2023-03-02T09:16:32.000Z,98325.38
2023-03-02T09:18:34.188Z,98326.25
2023-03-02T09:20:35.590Z,98332.28
2023-03-02T09:22:37.153Z,98330.59
2023-03-02T09:24:38.447Z,98337.44
2023-03-02T09:26:39.776Z,98334.91
2023-03-02T09:28:41.135Z,98327.22
2023-03-02T09:30:42.464Z,98325.56
2023-03-02T09:32:43.942Z,98329.78
2023-03-02T09:34:45.344Z,98329.81
2023-03-02T09:36:46.691Z,98324.69
2023-03-02T09:38:48.020Z,98325.56
2023-03-02T09:40:49.389Z,98323.84
2023-03-02T09:42:50.684Z,98328.94
2023-03-02T09:44:52.049Z,98319.56
2023-03-02T09:46:53.389Z,98325.56
2023-03-02T09:48:54.777Z,98331.50
2023-03-02T09:50:56.389Z,98326.38
2023-03-02T09:52:58.725Z,98328.91
2023-03-02T09:55:00.032Z,98334.00
2023-03-02T09:57:02.047Z,98339.09
2023-03-02T09:59:03.368Z,98333.13
2023-03-02T10:01:04.744Z,98325.34
2023-03-02T10:03:17.019Z,98329.53
2023-03-02T10:05:18.983Z,98334.53
2023-03-02T10:07:20.316Z,98325.06
2023-03-02T10:09:21.653Z,98323.22
2023-03-02T10:11:23.532Z,98317.94
2023-03-02T10:13:24.847Z,98322.13
2023-03-02T10:15:26.203Z,98328.84
2023-03-02T10:17:27.500Z,98325.47
2023-03-02T10:19:28.835Z,98319.44
2023-03-02T10:21:30.190Z,98322.91
2023-03-02T10:23:31.528Z,98313.53
2023-03-02T10:25:32.836Z,98317.84
2023-03-02T10:27:34.177Z,98311.09
2023-03-02T10:29:35.520Z,98310.31
2023-03-02T10:31:36.877Z,98304.41
2023-03-02T10:33:38.191Z,98306.22
2023-03-02T10:35:39.533Z,98299.44
2023-03-02T10:37:40.900Z,98301.19
2023-03-02T10:39:42.252Z,98296.97
2023-03-02T10:41:43.609Z,98304.66
2023-03-02T10:43:45.018Z,98303.88
2023-03-02T10:45:46.361Z,98298.84
2023-03-02T10:47:47.731Z,98297.16
2023-03-02T10:49:49.070Z,98302.31
2023-03-02T10:51:50.431Z,98295.50
2023-03-02T10:53:51.786Z,98293.81
2023-03-02T10:55:53.176Z,98297.19
2023-03-02T10:57:54.517Z,98289.56
2023-03-02T10:59:55.821Z,98294.69
2023-03-02T11:01:57.359Z,98310.03
2023-03-02T11:03:58.735Z,98291.31
2023-03-02T11:06:00.511Z,98291.31
2023-03-02T11:08:02.153Z,98288.75
2023-03-02T11:10:03.658Z,98288.75
2023-03-02T11:12:05.103Z,98288.75
2023-03-02T11:14:06.448Z,98288.75
2023-03-02T11:16:07.780Z,98282.75
2023-03-02T11:18:09.160Z,98285.31
2023-03-02T11:20:10.723Z,98282.66
2023-03-02T11:22:12.056Z,98274.06
2023-03-02T11:24:14.108Z,98276.56
2023-03-02T11:26:15.441Z,98276.44
2023-03-02T11:28:16.835Z,98273.69
2023-03-02T11:30:19.371Z,98272.78
2023-03-02T11:32:20.754Z,98268.41
2023-03-02T11:34:22.271Z,98264.91
2023-03-02T11:36:23.603Z,98264.00
2023-03-02T11:38:24.917Z,98262.22
2023-03-02T11:40:26.536Z,98264.78
2023-03-02T11:42:27.963Z,98259.72
2023-03-02T11:44:29.925Z,98252.88
2023-03-02T11:46:31.292Z,98252.06
2023-03-02T11:48:32.693Z,98253.88
2023-03-02T11:50:34.038Z,98256.44
2023-03-02T11:52:35.375Z,98247.91
2023-03-02T11:54:36.826Z,98243.72
2023-03-02T11:56:38.194Z,98242.06
2023-03-02T11:58:39.682Z,98239.59
2023-03-02T12:00:41.015Z,98233.66
2023-03-02T12:02:42.319Z,98232.00
2023-03-02T12:04:43.611Z,98238.06
2023-03-02T12:06:46.147Z,98226.13
2023-03-02T12:08:47.557Z,98225.25
2023-03-02T12:10:48.891Z,98232.09
2023-03-02T12:12:50.204Z,98225.38
2023-03-02T12:14:52.488Z,98233.91
2023-03-02T12:16:53.998Z,98227.94
2023-03-02T12:18:55.403Z,98223.75
2023-03-02T12:20:56.700Z,98228.81
2023-03-02T12:22:59.313Z,98231.41
2023-03-02T12:25:00.739Z,98227.16
2023-03-02T12:27:02.406Z,98230.59
2023-03-02T12:29:03.790Z,98216.97
2023-03-02T12:31:05.067Z,98218.69
2023-03-02T12:33:06.499Z,98210.22
2023-03-02T12:35:07.830Z,98209.31
2023-03-02T12:37:09.264Z,98210.13
2023-03-02T12:39:11.097Z,98207.56
2023-03-02T12:41:12.930Z,98204.94
2023-03-02T12:43:14.366Z,98203.16
2023-03-02T12:45:15.851Z,98207.34
2023-03-02T12:47:17.803Z,98200.47
2023-03-02T12:49:19.873Z,98200.31
2023-03-02T12:51:22.237Z,98194.28
2023-03-02T12:53:23.646Z,98203.56
2023-03-02T12:55:25.125Z,98194.09
2023-03-02T12:57:26.438Z,98197.41
2023-03-02T12:59:27.749Z,98190.53
2023-03-02T13:01:29.142Z,98192.19
2023-03-02T13:03:30.509Z,98192.19
2023-03-02T13:05:31.900Z,98189.69
2023-03-02T13:07:33.288Z,98184.56
2023-03-02T13:09:34.965Z,98178.63
2023-03-02T13:11:37.255Z,98178.69
2023-03-02T13:13:38.625Z,98177.03
2023-03-02T13:15:39.983Z,98171.09
2023-03-02T13:17:41.315Z,98169.44
2023-03-02T13:19:42.605Z,98174.59
2023-03-02T13:21:43.894Z,98171.28
2023-03-02T13:23:45.231Z,98167.00
2023-03-02T13:25:46.526Z,98163.66
2023-03-02T13:27:47.921Z,98154.34
2023-03-02T13:29:49.285Z,98161.25
2023-03-02T13:31:50.687Z,98156.97
2023-03-02T13:33:52.535Z,98157.91
2023-03-02T13:35:53.875Z,98153.63
2023-03-02T13:37:55.216Z,98150.28
2023-03-02T13:39:57.112Z,98151.22
2023-03-02T13:41:58.500Z,98141.88
2023-03-02T13:43:59.843Z,98144.50
2023-03-02T13:46:01.222Z,98145.44
2023-03-02T13:48:02.559Z,98146.34
2023-03-02T13:50:03.879Z,98139.59
2023-03-02T13:52:08.092Z,98136.28
2023-03-02T13:54:09.711Z,98138.97
2023-03-02T13:56:11.009Z,98135.69
2023-03-02T13:58:12.354Z,98134.09
2023-03-02T14:00:13.657Z,98123.03
2023-03-02T14:02:14.952Z,98129.91
2023-03-02T14:04:19.236Z,98126.44
2023-03-02T14:06:20.620Z,98128.94
2023-03-02T14:08:21.924Z,98124.63
2023-03-02T14:10:23.227Z,98127.16
2023-03-02T14:12:24.561Z,98121.16
2023-03-02T14:14:25.887Z,98123.69
2023-03-02T14:16:28.085Z,98120.22
2023-03-02T14:18:29.416Z,98120.94
2023-03-02T14:20:30.720Z,98114.06
2023-03-02T14:22:32.176Z,98110.63
2023-03-02T14:24:33.473Z,98114.81
2023-03-02T14:26:34.911Z,98108.72
2023-03-02T14:28:36.241Z,98107.78
2023-03-02T14:30:37.584Z,98113.63
2023-03-02T14:32:41.586Z,98106.78
2023-03-02T14:34:42.900Z,98103.38
2023-03-02T14:36:44.244Z,98097.34
2023-03-02T14:38:45.546Z,98104.09
2023-03-02T14:40:46.946Z,98095.56
2023-03-02T14:42:48.645Z,98091.38
2023-03-02T14:44:49.950Z,98089.72
2023-03-02T14:46:51.354Z,98088.94
2023-03-02T14:48:52.768Z,98091.59
2023-03-02T14:50:54.173Z,98090.00
2023-03-02T14:52:55.906Z,98085.88
2023-03-02T14:54:57.235Z,98086.81
2023-03-02T14:56:58.786Z,98084.34
2023-03-02T14:59:00.151Z,98083.56
2023-03-02T15:01:02.255Z,98076.03
2023-03-02T15:03:03.691Z,98074.44
2023-03-02T15:05:05.082Z,98086.50
2023-03-02T15:07:06.479Z,98076.38
2023-03-02T15:09:08.474Z,98075.63
2023-03-02T15:11:09.844Z,98073.09
2023-03-02T15:13:11.188Z,98070.59
2023-03-02T15:15:12.491Z,98073.25
2023-03-02T15:17:13.821Z,98073.31
2023-03-02T15:19:15.123Z,98065.72
2023-03-02T15:21:16.503Z,98061.53
2023-03-02T15:23:17.838Z,98069.31
2023-03-02T15:25:19.152Z,98060.81
2023-03-02T15:27:22.679Z,98060.06
2023-03-02T15:29:24.021Z,98060.91
2023-03-02T15:31:27.575Z,98065.19
2023-03-02T15:33:28.875Z,98064.31
2023-03-02T15:35:30.270Z,98059.22
2023-03-02T15:37:31.632Z,98065.97
2023-03-02T15:39:34.043Z,98067.63
2023-03-02T15:41:35.714Z,98064.22
2023-03-02T15:43:37.167Z,98058.16
2023-03-02T15:45:38.545Z,98062.38
2023-03-02T15:47:39.889Z,98064.81
2023-03-02T15:49:41.210Z,98059.72
2023-03-02T15:51:42.607Z,98059.72
2023-03-02T15:53:43.986Z,98053.78
2023-03-02T15:55:45.795Z,98051.19
2023-03-02T15:57:47.116Z,98053.72
2023-03-02T15:59:51.259Z,98046.06
2023-03-02T16:01:52.642Z,98048.66
2023-03-02T16:03:54.299Z,98048.75
2023-03-02T16:05:55.624Z,98044.47
2023-03-02T16:07:56.948Z,98047.91
2023-03-02T16:09:58.405Z,98047.91
2023-03-02T16:11:59.753Z,98048.75
2023-03-02T16:14:01.095Z,98051.38
2023-03-02T16:16:02.467Z,98051.38
2023-03-02T16:18:03.824Z,98053.13
2023-03-02T16:20:05.175Z,98053.97
2023-03-02T16:22:06.481Z,98055.69
2023-03-02T16:24:10.652Z,98055.75
2023-03-02T16:26:12.019Z,98058.31
2023-03-02T16:28:13.328Z,98060.91
2023-03-02T16:30:14.646Z,98063.50
2023-03-02T16:32:16.143Z,98065.22
2023-03-02T16:34:17.597Z,98060.13
2023-03-02T16:36:18.974Z,98067.00
2023-03-02T16:38:20.309Z,98067.06
2023-03-02T16:40:21.663Z,98066.22
2023-03-02T16:42:23.003Z,98071.38
2023-03-02T16:44:25.664Z,98061.19
2023-03-02T16:46:27.069Z,98066.34
2023-03-02T16:48:28.597Z,98062.13
2023-03-02T16:50:29.918Z,98069.81
2023-03-02T16:52:31.257Z,98069.03
2023-03-02T16:54:32.584Z,98069.91
2023-03-02T16:56:33.940Z,98069.94
2023-03-02T16:58:38.337Z,98073.34
2023-03-02T17:00:42.782Z,98075.06
2023-03-02T17:02:44.134Z,98071.66
2023-03-02T17:04:45.426Z,98072.56
2023-03-02T17:06:59.856Z,98090.44
2023-03-02T17:09:02.246Z,98088.78
2023-03-02T17:11:03.595Z,98089.63
2023-03-02T17:13:04.895Z,98090.50
2023-03-02T17:15:06.276Z,98093.91
2023-03-02T17:17:07.642Z,98092.25
2023-03-02T17:19:08.983Z,98093.91
2023-03-02T17:21:10.281Z,98092.19
2023-03-02T17:23:12.785Z,98091.34
2023-03-02T17:25:14.085Z,98085.31
2023-03-02T17:27:24.573Z,98084.44
2023-03-02T17:29:26.873Z,98089.47
2023-03-02T17:31:28.245Z,98092.91
2023-03-02T17:33:29.785Z,98086.91
2023-03-02T17:35:31.123Z,98092.00
2023-03-02T17:37:32.468Z,98082.59
2023-03-02T17:39:33.780Z,98086.84
2023-03-02T17:41:35.112Z,98086.84
2023-03-02T17:43:39.469Z,98085.97
2023-03-02T17:45:40.764Z,98091.84
2023-03-02T17:47:42.102Z,98091.84
2023-03-02T17:49:46.316Z,98092.69
2023-03-02T17:51:47.689Z,98085.88
2023-03-02T17:53:49.159Z,98087.56
2023-03-02T17:55:50.452Z,98080.72
2023-03-02T17:57:51.772Z,98085.81
2023-03-02T17:59:53.113Z,98081.59
2023-03-02T18:01:54.429Z,98090.13
2023-03-02T18:03:58.656Z,98079.91
2023-03-02T18:06:00.055Z,98081.63
2023-03-02T18:08:01.364Z,98080.81
2023-03-02T18:10:05.469Z,98079.09
2023-03-02T18:12:10.246Z,98082.59
2023-03-02T18:14:11.603Z,98086.06
2023-03-02T18:16:12.995Z,98086.09
2023-03-02T18:18:14.355Z,98083.56
2023-03-02T18:20:15.659Z,98089.44
2023-03-02T18:22:16.988Z,98091.22
2023-03-02T18:24:18.282Z,98092.09
2023-03-02T18:26:22.784Z,98097.16
2023-03-02T18:28:27.244Z,98093.56
2023-03-02T18:30:28.568Z,98094.75
2023-03-02T18:32:29.914Z,98095.50
2023-03-02T18:34:31.253Z,98092.63
2023-03-02T18:36:33.451Z,98105.09
2023-03-02T18:38:34.860Z,98107.13
2023-03-02T18:40:36.214Z,98109.97
2023-03-02T18:42:37.543Z,98103.59
2023-03-02T18:44:38.849Z,98112.09
2023-03-02T18:46:40.404Z,98104.56
2023-03-02T18:48:41.785Z,98112.63
2023-03-02T18:50:43.777Z,98111.00
2023-03-02T18:52:45.136Z,98117.81
2023-03-02T18:54:46.482Z,98118.50
2023-03-02T18:56:48.185Z,98119.44
2023-03-02T18:58:49.787Z,98116.75
2023-03-02T19:00:51.196Z,98123.09
2023-03-02T19:02:55.507Z,98122.78
2023-03-02T19:04:56.819Z,98128.75
2023-03-02T19:07:00.721Z,98124.38
2023-03-02T19:09:02.095Z,98122.53
2023-03-02T19:11:03.452Z,98120.94
2023-03-02T19:13:05.649Z,98133.34
2023-03-02T19:15:07.298Z,98125.66
2023-03-02T19:17:08.648Z,98123.03
2023-03-02T19:19:09.952Z,98134.97
2023-03-02T19:21:11.256Z,98132.25
2023-03-02T19:23:12.600Z,98129.53
2023-03-02T19:25:13.911Z,98125.13
2023-03-02T19:27:15.227Z,98122.09
2023-03-02T19:29:16.541Z,98123.84
2023-03-02T19:31:17.978Z,98125.81
2023-03-02T19:33:19.335Z,98122.50
2023-03-02T19:35:20.894Z,98125.84
2023-03-02T19:37:22.192Z,98119.22
2023-03-02T19:39:23.489Z,98095.66
2023-03-02T19:41:24.819Z,98134.66
2023-03-02T19:43:26.123Z,98130.94
2023-03-02T19:45:28.619Z,98129.31
2023-03-02T19:47:32.145Z,98125.91
2023-03-02T19:49:37.691Z,98132.44
2023-03-02T19:51:39.658Z,98134.06
2023-03-02T19:53:41.197Z,98140.97
2023-03-02T19:55:42.566Z,98133.28
2023-03-02T19:57:43.971Z,98139.53
2023-03-02T19:59:45.288Z,98138.19
2023-03-02T20:01:49.258Z,98142.84
2023-03-02T20:03:51.816Z,98139.47
2023-03-02T20:05:53.163Z,98138.66
2023-03-02T20:07:54.473Z,98139.28
2023-03-02T20:09:55.775Z,98141.56
2023-03-02T20:11:58.676Z,98146.41
2023-03-02T20:14:02.162Z,98146.97
2023-03-02T20:16:06.226Z,98145.13
2023-03-02T20:18:07.653Z,98139.13
2023-03-02T20:20:08.935Z,98143.00
2023-03-02T20:22:10.754Z,98147.19
2023-03-02T20:24:13.840Z,98142.97
2023-03-02T20:26:15.345Z,98148.13
2023-03-02T20:28:16.648Z,98148.88
2023-03-02T20:30:20.711Z,98144.97
2023-03-02T20:32:22.344Z,98152.72
2023-03-02T20:34:23.655Z,98150.56
2023-03-02T20:36:25.115Z,98150.53
2023-03-02T20:40:33.274Z,98152.72
2023-03-02T20:42:36.017Z,98160.34
2023-03-02T20:44:37.431Z,98159.50
2023-03-02T20:46:38.746Z,98146.78
2023-03-02T20:48:40.051Z,98158.63
2023-03-02T20:50:41.385Z,98155.28
2023-03-02T20:52:42.678Z,98150.09
2023-03-02T20:54:44.043Z,98149.09
2023-03-02T20:56:54.315Z,98148.94
2023-03-02T20:58:55.625Z,98151.41
2023-03-02T21:00:57.309Z,98146.41
2023-03-02T21:02:58.640Z,98141.28
2023-03-02T21:05:00.236Z,98142.50
2023-03-02T21:07:01.664Z,98139.78
2023-03-02T21:09:02.971Z,98132.59
2023-03-02T21:11:04.282Z,98132.00
2023-03-02T21:13:07.539Z,98129.63
2023-03-02T21:15:09.161Z,98124.72
2023-03-02T21:17:10.496Z,98119.25
2023-03-02T21:19:12.347Z,98129.34
2023-03-02T21:21:20.200Z,98121.56
2023-03-02T21:23:24.372Z,98124.88
2023-03-02T21:25:25.728Z,98123.75
2023-03-02T21:27:27.032Z,98120.38
2023-03-02T21:29:28.371Z,98123.03
2023-03-02T21:31:29.789Z,98123.78
2023-03-02T21:33:31.169Z,98129.34
2023-03-02T21:35:32.515Z,98127.16
2023-03-02T21:37:33.817Z,98122.72
2023-03-02T21:39:35.374Z,98120.53
2023-03-02T21:41:36.748Z,98112.78
2023-03-02T21:43:41.101Z,98112.78
2023-03-02T21:45:42.507Z,98117.53
2023-03-02T21:47:43.846Z,98103.22
2023-03-02T21:49:45.139Z,98103.22
2023-03-02T21:51:48.820Z,98104.09
2023-03-02T21:53:53.186Z,98103.09
2023-03-02T21:55:55.066Z,98104.78
2023-03-02T21:57:56.359Z,98099.28
2023-03-02T21:59:57.696Z,98102.16
2023-03-02T22:01:59.322Z,98106.63
2023-03-02T22:04:00.889Z,98106.25
2023-03-02T22:06:02.186Z,98106.09
2023-03-02T22:08:03.527Z,98106.03
2023-03-02T22:10:04.902Z,98100.59
2023-03-02T22:12:06.264Z,98111.16
2023-03-02T22:14:08.213Z,98114.97
2023-03-02T22:16:09.565Z,98112.56
2023-03-02T22:18:11.051Z,98102.31
2023-03-02T22:20:12.416Z,98113.31
2023-03-02T22:22:13.719Z,98111.75
2023-03-02T22:24:15.065Z,98106.88
2023-03-02T22:26:16.618Z,98112.09
2023-03-02T22:28:18.061Z,98121.81
2023-03-02T22:30:19.422Z,98117.97
2023-03-02T22:32:20.849Z,98105.91
2023-03-02T22:34:22.193Z,98114.41
2023-03-02T22:36:23.531Z,98109.22
2023-03-02T22:38:25.023Z,98114.03
2023-03-02T22:40:26.380Z,98117.03
2023-03-02T22:42:27.892Z,98107.13
2023-03-02T22:44:29.187Z,98112.84
2023-03-02T22:46:30.546Z,98112.28
2023-03-02T22:48:32.085Z,98114.59
2023-03-02T22:50:33.376Z,98116.34
2023-03-02T22:52:34.673Z,98102.69
2023-03-02T22:54:35.988Z,98114.06
2023-03-02T22:56:37.446Z,98101.75
2023-03-02T22:58:38.825Z,98102.19
2023-03-02T23:00:40.283Z,98108.47
2023-03-02T23:02:41.632Z,98106.47
2023-03-02T23:04:43.013Z,98112.13
2023-03-02T23:06:45.215Z,98110.34
2023-03-02T23:08:46.526Z,98111.84
2023-03-02T23:10:47.828Z,98104.09
2023-03-02T23:12:49.166Z,98109.91
2023-03-02T23:14:50.586Z,98110.72
2023-03-02T23:16:52.103Z,98102.13
2023-03-02T23:18:54.021Z,98108.88
2023-03-02T23:20:55.331Z,98102.81
2023-03-02T23:22:56.655Z,98105.44
2023-03-02T23:24:58.113Z,98108.00
2023-03-02T23:26:59.416Z,98107.09
2023-03-02T23:29:01.051Z,98101.97
2023-03-02T23:31:02.363Z,98096.94
2023-03-02T23:33:03.664Z,98095.50
2023-03-02T23:35:05.054Z,98103.31
2023-03-02T23:37:06.571Z,98099.19
2023-03-02T23:39:07.904Z,98090.75
2023-03-02T23:41:09.876Z,98095.97
2023-03-02T23:43:11.399Z,98099.56
2023-03-02T23:45:12.752Z,98097.94
2023-03-02T23:47:14.342Z,98087.75
2023-03-02T23:49:15.666Z,97955.28
2023-03-02T23:51:16.996Z,98092.19